WetterOnline ( https://www.wetteronline.de )

Wetter aktuell Fichtelberg

Aktuelles Wetter: Fichtelberg (1215m)

6-stündlich | Neueste Meldungen
Ortszeit Temperatur Wetter
Sa, 16.10. 8:00 0.7° C Nebel
Sa, 16.10. 2:00 1.4° C Nebel
Fr, 15.10. 20:00 2.6° C Nebel
Fr, 15.10. 14:00 5.2° C bewölkt
Fr, 15.10. 8:00 4.0° C Nebel
Fr, 15.10. 2:00 3.8° C Nebel
Do, 14.10. 20:00 4.5° C Nebel
Do, 14.10. 14:00 4.6° C Sprühregen
Ortszeit Temperatur Wetter
Sa, 16.10. 10:30 1.0° C wolkenlos
Sa, 16.10. 10:20 1.0° C wolkenlos
Sa, 16.10. 10:10 1.1° C leicht bewölkt
Sa, 16.10. 10:00 1.3° C bewölkt
Sa, 16.10. 9:50 1.3° C bewölkt
Sa, 16.10. 9:40 0.9° C Nebel
Sa, 16.10. 9:30 1.0° C Nebel
Sa, 16.10. 9:00 0.7° C Nebel
Sa, 16.10. 8:30 0.8° C Nebel
Sa, 16.10. 8:00 0.7° C Nebel
Sa, 16.10. 7:30 0.8° C Nebel
Ortszeit Relative Feuchte Sichtweite
Sa, 16.10. 8:00 100% 100 m
Sa, 16.10. 2:00 100% 100 m
Fr, 15.10. 20:00 100% <100 m
Fr, 15.10. 14:00 99% 4.0 km
Fr, 15.10. 8:00 100% 0.2 km
Fr, 15.10. 2:00 100% 100 m
Do, 14.10. 20:00 100% <100 m
Do, 14.10. 14:00 100% 100 m
Ortszeit Relative Feuchte Sichtweite
Sa, 16.10. 10:30 99% 35 km
Sa, 16.10. 10:20 99% -
Sa, 16.10. 10:10 98% -
Sa, 16.10. 10:00 99% 16 km
Sa, 16.10. 9:50 99% -
Sa, 16.10. 9:40 100% -
Sa, 16.10. 9:30 100% 0.2 km
Sa, 16.10. 9:00 100% 0.2 km
Sa, 16.10. 8:30 99% 0.3 km
Sa, 16.10. 8:00 100% 100 m
Sa, 16.10. 7:30 99% 100 m
Ortszeit Niederschlagsmenge Niederschlagsart
Sa, 16.10. 8:00 0.1 l/m2 in 12 Std. -
Sa, 16.10. 2:00 0.1 l/m2 in 6 Std. Regen
Fr, 15.10. 20:00 3 l/m2 in 12 Std. Regen
Fr, 15.10. 14:00 0.0 l/m2 in 6 Std. -
Fr, 15.10. 8:00 0.3 l/m2 in 12 Std. Sprühregen
Fr, 15.10. 2:00 0.3 l/m2 in 6 Std. Regen
Do, 14.10. 20:00 4 l/m2 in 12 Std. Regen
Do, 14.10. 14:00 2 l/m2 in 6 Std. Regen
Ortszeit Niederschlagsmenge Niederschlagsart
Sa, 16.10. 10:30 0.0 l/m2 in 1 Std. -
Sa, 16.10. 10:20 keine Meldung -
Sa, 16.10. 10:10 keine Meldung -
Sa, 16.10. 10:00 0.0 l/m2 in 1 Std. -
Sa, 16.10. 9:50 keine Meldung -
Sa, 16.10. 9:40 keine Meldung -
Sa, 16.10. 9:30 0.0 l/m2 in 1 Std. -
Sa, 16.10. 9:00 0.0 l/m2 in 1 Std. -
Sa, 16.10. 8:30 0.0 l/m2 in 1 Std. -
Sa, 16.10. 8:00 0.0 l/m2 in 1 Std. -
Sa, 16.10. 7:30 0.0 l/m2 in 1 Std. -
Ortszeit Stärke Spitze Richtung
km/h Bft. km/h Grad Sektor
Sa, 16.10. 8:00 11 2 36 310° NW
Sa, 16.10. 2:00 26 4 43 320° NW
Fr, 15.10. 20:00 28 4 63 300° NW
Fr, 15.10. 14:00 50 7 76 260° W
Fr, 15.10. 8:00 43 6 59 250° W
Fr, 15.10. 2:00 41 6 56 270° W
Do, 14.10. 20:00 36 5 47 280° W
Do, 14.10. 14:00 29 5 54 270° W
Ortszeit Stärke Spitze Richtung
km/h Bft. km/h Grad Sektor
Sa, 16.10. 10:30 0 0 7 - -
Sa, 16.10. 10:20 2 1 - 270° W
Sa, 16.10. 10:10 2 1 - 90° O
Sa, 16.10. 10:00 4 1 11 170° S
Sa, 16.10. 9:50 4 1 - 170° S
Sa, 16.10. 9:40 4 1 - 250° W
Sa, 16.10. 9:30 4 1 7 290° W
Sa, 16.10. 9:00 6 1 19 300° NW
Sa, 16.10. 8:30 11 2 18 310° NW
Sa, 16.10. 8:00 11 2 18 310° NW
Sa, 16.10. 7:30 13 3 19 310° NW
Ortszeit Untergrenze Bedeckung Gattung
total tief tief mittel hoch
Sa, 16.10. 8:00 <30 m 8/8 0/8 - - -
Sa, 16.10. 2:00 <30 m 8/8 0/8 - - -
Fr, 15.10. 20:00 <30 m 8/8 0/8 - - -
Fr, 15.10. 14:00 30 m 7/8 7/8 - - -
Fr, 15.10. 8:00 <30 m 8/8 0/8 - - -
Fr, 15.10. 2:00 <30 m 8/8 0/8 - - -
Do, 14.10. 20:00 <30 m 8/8 0/8 - - -
Do, 14.10. 14:00 <30 m 8/8 0/8 - - -
Ortszeit Bedeckungsgrad in Achtel und Wolkenuntergrenze
Sa, 16.10. 10:30 keine Wolken
Sa, 16.10. 10:20 keine Wolken
Sa, 16.10. 10:10 2(30m)
Sa, 16.10. 10:00 7(<30m)
Sa, 16.10. 9:50 7(<30m)
Sa, 16.10. 9:40 7(<30m)
Sa, 16.10. 9:30 8(<30m)
Sa, 16.10. 9:00 8(<30m)
Sa, 16.10. 8:30 7(<30m)
Sa, 16.10. 8:00 8(<30m)
Sa, 16.10. 7:30 8(<30m)
Ortszeit Stationsdruck (hPa) Tendenz (hPa in 3 Std.)
Sa, 16.10. 8:00 881 + 0,7
Sa, 16.10. 2:00 881 + 0,4
Fr, 15.10. 20:00 879 + 1,9
Fr, 15.10. 14:00 877 - 0,4
Fr, 15.10. 8:00 878 - 1,1
Fr, 15.10. 2:00 881 - 1,4
Do, 14.10. 20:00 883 - 0,1
Do, 14.10. 14:00 883 0,0
Ortszeit Stationsdruck (hPa) Tendenz (hPa in 3 Std.)
Sa, 16.10. 10:30 883 + 1,4
Sa, 16.10. 10:20 883 keine Meldung
Sa, 16.10. 10:10 882 keine Meldung
Sa, 16.10. 10:00 882 + 1,2
Sa, 16.10. 9:50 882 keine Meldung
Sa, 16.10. 9:40 882 keine Meldung
Sa, 16.10. 9:30 882 + 1,3
Sa, 16.10. 9:00 882 + 1,1
Sa, 16.10. 8:30 882 + 0,9
Sa, 16.10. 8:00 881 + 0,7
Sa, 16.10. 7:30 881 + 0,7
Ortszeit Schneehöhe (cm)
Sa, 16.10. 8:00 0
Sa, 16.10. 2:00 0
Fr, 15.10. 20:00 0
Fr, 15.10. 14:00 0
Fr, 15.10. 8:00 0
Fr, 15.10. 2:00 0
Do, 14.10. 20:00 0
Do, 14.10. 14:00 0
Ortszeit Schneehöhe (cm)
Sa, 16.10. 10:30 0
Sa, 16.10. 10:20 0
Sa, 16.10. 10:10 0
Sa, 16.10. 10:00 0
Sa, 16.10. 9:50 0
Sa, 16.10. 9:40 0
Sa, 16.10. 9:30 0
Sa, 16.10. 9:00 0
Sa, 16.10. 8:30 0
Sa, 16.10. 8:00 0
Sa, 16.10. 7:30 0
Link zu dieser Seite / Seite empfehlen

Das Wetter in ...